What's New & What's Coming
What BayLakers Should Know, Weather, FB & BLIA
Your Pictures
BayLakers on the Water & Young Anglers
Zebra Mussels & EWM
Environmental & History
Postings From Past Years
HOME ::
 

 


Live Image updated every minute!
This page will automatically reload every hour.

KAIT - Aitkin Airport, Aitkin, Minnesota
Updated: Mon, 10-Dec-2018 9:55am CST
Clear
Clear
 Wind from SSW
Wind: SSW 7 mph , 11 km/h
Temperature: 23°F , -5°C
Wind Chill: 15°F , -9°C
Dew Point: 18°F , -8°C
Humidity: 80%
Barometer: 30.02 inHg , 1016.6 hPa
Clouds: Clear
Visibility: 10 miles , 16 km
2018/12/10 15:55 KAIT 101555Z AUTO 21006KT 10SM CLR M05/M08 A3002 RMK AO2
KBRD - Brainerd Airport, Brainerd, Minnesota
Updated: Mon, 10-Dec-2018 9:53am CST
Haze, Clear
Haze, Clear
 Wind from SSW
Wind: SSW 12 mph , 19 km/h
Temperature: 19°F , -7°C
Wind Chill: 6°F , -14°C
Dew Point: 12°F , -11°C
Humidity: 73%
Barometer: 30.05 inHg , 1017.6 hPa
Summary: Haze
Clouds: Clear
Visibility: 4 miles , 6 km
2018/12/10 15:53 KBRD 101553Z AUTO 21010KT 4SM HZ CLR M07/M11 A3005 RMK AO2 SLP200 T10721106

Metar display script from Saratoga-Weather.org

 

Live air traffic over Bay Lake

 

Locations of visitors to this page